Time;durP1;ratioP1;P1;durP2;ratioP2;P2;SDS_P1;SDS_P2;PMS_P1;PMS_P2;Temp;Humidity;BMP_temperature;BMP_pressure;BME280_temperature;BME280_humidity;BME280_pressure;Samples;Min_cycle;Max_cycle;Signal;HPM_P1;HPM_P2
2023/05/17 00:02:06;;;;;;;;;;;9.50;82.40;;;;;;5073502;28;19966;-25
2023/05/17 00:04:32;;;;;;;;;;;9.50;82.60;;;;;;5073565;28;19912;-27
2023/05/17 00:06:57;;;;;;;;;;;9.50;82.80;;;;;;5073581;28;19913;-25
2023/05/17 00:09:23;;;;;;;;;;;9.40;82.70;;;;;;5072622;28;20330;-27
2023/05/17 00:11:48;;;;;;;;;;;9.50;83.00;;;;;;5073536;28;19919;-26
2023/05/17 00:14:14;;;;;;;;;;;9.40;82.90;;;;;;5073323;28;20345;-35
2023/05/17 00:16:39;;;;;;;;;;;9.40;83.10;;;;;;5073176;28;19913;-25
2023/05/17 00:19:05;;;;;;;;;;;9.40;83.00;;;;;;5073139;28;20284;-26
2023/05/17 00:21:30;;;;;;;;;;;9.40;83.20;;;;;;5073024;28;19950;-29
2023/05/17 00:23:56;;;;;;;;;;;9.40;83.20;;;;;;5073077;28;20281;-27
2023/05/17 00:26:21;;;;;;;;;;;9.40;83.40;;;;;;5073119;28;19912;-26
2023/05/17 00:28:47;;;;;;;;;;;9.40;83.50;;;;;;5072973;28;20372;-31
2023/05/17 00:31:12;;;;;;;;;;;9.40;83.60;;;;;;5072779;28;19956;-26
2023/05/17 00:33:38;;;;;;;;;;;9.40;83.60;;;;;;5071403;28;20376;-28
2023/05/17 00:36:03;;;;;;;;;;;9.30;83.60;;;;;;5072686;28;19919;-26
2023/05/17 00:38:29;;;;;;;;;;;9.30;83.60;;;;;;5072773;28;19919;-29
2023/05/17 00:40:54;;;;;;;;;;;9.30;83.60;;;;;;5072649;28;19912;-25
2023/05/17 00:43:20;;;;;;;;;;;9.30;83.70;;;;;;5072703;28;19924;-35
2023/05/17 00:45:47;;;;;;;;;;;9.30;83.80;;;;;;5072653;28;19916;-26
2023/05/17 00:48:12;;;;;;;;;;;9.30;83.80;;;;;;5072427;28;19912;-26
2023/05/17 00:50:38;;;;;;;;;;;9.30;83.90;;;;;;5072491;28;20003;-28
2023/05/17 00:53:03;;;;;;;;;;;9.30;84.10;;;;;;5072433;28;20388;-26
2023/05/17 00:55:29;;;;;;;;;;;9.30;84.10;;;;;;5072393;28;19987;-29
2023/05/17 00:57:55;;;;;;;;;;;9.30;84.10;;;;;;5071061;28;19916;-25
2023/05/17 01:00:20;;;;;;;;;;;9.20;84.10;;;;;;5072354;28;19912;-28
2023/05/17 01:02:47;;;;;;;;;;;9.20;84.10;;;;;;5070809;28;19927;-30
2023/05/17 01:05:13;;;;;;;;;;;9.30;84.10;;;;;;5072234;28;19913;-25
2023/05/17 01:07:39;;;;;;;;;;;9.30;84.10;;;;;;5072192;28;20447;-28
2023/05/17 01:10:05;;;;;;;;;;;9.20;84.30;;;;;;5072062;28;20061;-27
2023/05/17 01:12:34;;;;;;;;;;;9.20;84.30;;;;;;5070877;28;19913;-26
2023/05/17 01:15:07;;;;;;;;;;;9.20;84.30;;;;;;5070817;28;19913;-26
2023/05/17 01:17:51;;;;;;;;;;;9.20;84.50;;;;;;5072263;28;19912;-25
2023/05/17 01:20:23;;;;;;;;;;;9.20;84.40;;;;;;5072501;28;19966;-27
2023/05/17 01:22:57;;;;;;;;;;;9.10;84.40;;;;;;5072140;28;19992;-26
2023/05/17 01:25:26;;;;;;;;;;;9.10;85.10;;;;;;5072329;28;19912;-27
2023/05/17 01:27:53;;;;;;;;;;;9.10;84.50;;;;;;5071935;28;19912;-26
2023/05/17 01:30:19;;;;;;;;;;;9.10;84.60;;;;;;5071681;28;20294;-28
2023/05/17 01:32:45;;;;;;;;;;;9.20;84.70;;;;;;5071865;28;19919;-27
2023/05/17 01:35:11;;;;;;;;;;;9.10;84.60;;;;;;5071981;28;19913;-29
2023/05/17 01:37:37;;;;;;;;;;;9.20;84.70;;;;;;5072307;28;19916;-27
2023/05/17 01:40:03;;;;;;;;;;;9.20;84.70;;;;;;5070566;28;20008;-25
2023/05/17 01:42:30;;;;;;;;;;;9.20;84.80;;;;;;5071718;28;19990;-26
2023/05/17 01:45:05;;;;;;;;;;;9.20;84.70;;;;;;5070498;28;19923;-26
2023/05/17 01:47:30;;;;;;;;;;;9.20;84.70;;;;;;5071650;28;19982;-29
2023/05/17 01:49:58;;;;;;;;;;;9.20;84.70;;;;;;5071795;28;19994;-31
2023/05/17 01:52:27;;;;;;;;;;;9.20;84.90;;;;;;5071813;28;20305;-28
2023/05/17 01:55:03;;;;;;;;;;;9.20;84.80;;;;;;5071650;28;20013;-25
2023/05/17 01:57:31;;;;;;;;;;;9.20;84.80;;;;;;5071569;28;19912;-25
2023/05/17 01:59:58;;;;;;;;;;;9.30;84.90;;;;;;5071873;28;19916;-26
2023/05/17 02:02:24;;;;;;;;;;;9.30;84.90;;;;;;5071412;28;19952;-25
2023/05/17 02:04:50;;;;;;;;;;;9.30;84.90;;;;;;5071528;28;19913;-28
2023/05/17 02:07:15;;;;;;;;;;;9.30;84.90;;;;;;5071383;28;19919;-26
2023/05/17 02:09:41;;;;;;;;;;;9.30;84.90;;;;;;5071805;28;20455;-28
2023/05/17 02:12:06;;;;;;;;;;;9.40;84.90;;;;;;5071534;28;19912;-26
2023/05/17 02:14:32;;;;;;;;;;;9.40;84.90;;;;;;5071423;28;19913;-27
2023/05/17 02:16:57;;;;;;;;;;;9.30;84.80;;;;;;5071533;28;19919;-25
2023/05/17 02:19:23;;;;;;;;;;;9.30;84.80;;;;;;5071390;28;20003;-28
2023/05/17 02:21:48;;;;;;;;;;;9.30;84.90;;;;;;5071542;28;19912;-26
2023/05/17 02:24:14;;;;;;;;;;;9.30;84.90;;;;;;5071261;28;20373;-26
2023/05/17 02:26:41;;;;;;;;;;;9.30;85.00;;;;;;5071279;28;19908;-25
2023/05/17 02:29:08;;;;;;;;;;;9.30;85.00;;;;;;5071520;28;19908;-28
2023/05/17 02:31:33;;;;;;;;;;;9.30;85.10;;;;;;5071118;28;19920;-25
2023/05/17 02:33:59;;;;;;;;;;;9.40;85.10;;;;;;5074380;28;19913;-29
2023/05/17 02:36:24;;;;;;;;;;;9.40;85.10;;;;;;5073891;28;19916;-25
2023/05/17 02:38:50;;;;;;;;;;;9.40;85.10;;;;;;5075257;28;19927;-26
2023/05/17 02:41:15;;;;;;;;;;;9.50;85.10;;;;;;5075254;28;19916;-25
2023/05/17 02:43:41;;;;;;;;;;;9.50;85.00;;;;;;5075082;28;19993;-34
2023/05/17 02:46:06;;;;;;;;;;;9.60;84.90;;;;;;5075079;28;19917;-27
2023/05/17 02:48:32;;;;;;;;;;;9.60;84.90;;;;;;5075033;28;20337;-25
2023/05/17 02:50:57;;;;;;;;;;;9.60;84.90;;;;;;5074922;28;19912;-28
2023/05/17 02:53:23;;;;;;;;;;;9.60;84.80;;;;;;5074777;28;19913;-25
2023/05/17 02:55:48;;;;;;;;;;;9.70;84.90;;;;;;5073480;28;20291;-27
2023/05/17 02:58:13;;;;;;;;;;;9.80;84.90;;;;;;5074670;28;19958;-35
2023/05/17 03:00:43;;;;;;;;;;;9.80;84.90;;;;;;5074681;28;20384;-36
2023/05/17 03:03:08;;;;;;;;;;;9.80;84.70;;;;;;5074601;28;19923;-27
2023/05/17 03:05:34;;;;;;;;;;;9.80;84.90;;;;;;5074648;28;19913;-30
2023/05/17 03:08:00;;;;;;;;;;;9.80;84.80;;;;;;5074633;28;20394;-27
2023/05/17 03:10:25;;;;;;;;;;;9.80;84.70;;;;;;5074315;28;19917;-32
2023/05/17 03:12:51;;;;;;;;;;;9.80;84.70;;;;;;5074553;28;19912;-25
2023/05/17 03:15:16;;;;;;;;;;;9.80;84.90;;;;;;5074889;28;19917;-25
2023/05/17 03:17:42;;;;;;;;;;;9.70;84.80;;;;;;5074500;28;20339;-25
2023/05/17 03:20:07;;;;;;;;;;;9.60;85.00;;;;;;5074517;28;20390;-25
2023/05/17 03:22:33;;;;;;;;;;;9.60;85.10;;;;;;5074434;28;19916;-28
2023/05/17 03:24:58;;;;;;;;;;;9.60;85.10;;;;;;5074501;28;20348;-26
2023/05/17 03:27:24;;;;;;;;;;;9.60;85.10;;;;;;5074418;28;20004;-25
2023/05/17 03:29:49;;;;;;;;;;;9.60;85.10;;;;;;5074192;28;19923;-26
2023/05/17 03:32:15;;;;;;;;;;;9.60;85.10;;;;;;5074252;28;20284;-25
2023/05/17 03:34:40;;;;;;;;;;;9.60;85.10;;;;;;5074007;28;19912;-28
2023/05/17 03:37:07;;;;;;;;;;;9.60;85.00;;;;;;5074093;28;20260;-26
2023/05/17 03:39:32;;;;;;;;;;;9.60;85.00;;;;;;5074035;28;19913;-27
2023/05/17 03:41:58;;;;;;;;;;;9.60;85.00;;;;;;5073993;28;19919;-35
2023/05/17 03:44:23;;;;;;;;;;;9.60;85.10;;;;;;5072665;28;19943;-27
2023/05/17 03:46:49;;;;;;;;;;;9.60;85.10;;;;;;5074030;28;19944;-27
2023/05/17 03:49:14;;;;;;;;;;;9.60;85.70;;;;;;5074117;28;19912;-26
2023/05/17 03:51:40;;;;;;;;;;;9.70;85.10;;;;;;5073955;28;19919;-28
2023/05/17 03:54:05;;;;;;;;;;;9.70;85.00;;;;;;5073888;28;19913;-25
2023/05/17 03:56:31;;;;;;;;;;;9.70;85.50;;;;;;5073886;28;20399;-27
2023/05/17 03:58:56;;;;;;;;;;;9.60;84.90;;;;;;5073877;28;19913;-27
2023/05/17 04:01:22;;;;;;;;;;;9.60;84.90;;;;;;5073710;28;20262;-28
2023/05/17 04:03:47;;;;;;;;;;;9.50;84.90;;;;;;5073679;28;19969;-26
2023/05/17 04:06:16;;;;;;;;;;;9.50;84.90;;;;;;5073587;28;19920;-26
2023/05/17 04:08:41;;;;;;;;;;;9.50;85.10;;;;;;5073483;28;20342;-26
2023/05/17 04:11:12;;;;;;;;;;;9.50;85.20;;;;;;5073283;28;19913;-25
2023/05/17 04:13:41;;;;;;;;;;;9.40;85.10;;;;;;5073375;28;19912;-31
2023/05/17 04:16:07;;;;;;;;;;;9.40;85.20;;;;;;5073502;28;19916;-25
2023/05/17 04:18:36;;;;;;;;;;;9.50;85.20;;;;;;5073282;28;19982;-25
2023/05/17 04:21:02;;;;;;;;;;;9.40;85.20;;;;;;5073382;28;19912;-29
2023/05/17 04:23:28;;;;;;;;;;;9.40;85.20;;;;;;5073213;28;19916;-25
2023/05/17 04:25:53;;;;;;;;;;;9.40;85.20;;;;;;5073212;28;20011;-29
2023/05/17 04:28:20;;;;;;;;;;;9.40;85.10;;;;;;5073169;28;19912;-26
2023/05/17 04:30:46;;;;;;;;;;;9.40;85.20;;;;;;5072995;28;19952;-25
2023/05/17 04:33:12;;;;;;;;;;;9.30;85.10;;;;;;5073088;28;19956;-26
2023/05/17 04:35:40;;;;;;;;;;;9.30;85.20;;;;;;5072859;28;19999;-25
2023/05/17 04:38:06;;;;;;;;;;;9.40;85.20;;;;;;5072843;28;19912;-25
2023/05/17 04:40:31;;;;;;;;;;;9.40;85.20;;;;;;5072854;28;19920;-30
2023/05/17 04:42:57;;;;;;;;;;;9.40;85.20;;;;;;5072759;28;19921;-25
2023/05/17 04:45:22;;;;;;;;;;;9.40;85.10;;;;;;5072769;28;20326;-27
2023/05/17 04:47:49;;;;;;;;;;;9.40;85.10;;;;;;5073074;28;19958;-33
2023/05/17 04:50:15;;;;;;;;;;;9.40;85.10;;;;;;5072652;28;19965;-25
2023/05/17 04:52:41;;;;;;;;;;;9.50;85.00;;;;;;5072674;28;20342;-26
2023/05/17 04:55:06;;;;;;;;;;;9.60;84.90;;;;;;5072367;28;20019;-30
2023/05/17 04:57:32;;;;;;;;;;;9.70;84.90;;;;;;5072599;28;19913;-26
2023/05/17 04:59:57;;;;;;;;;;;9.80;84.70;;;;;;5072441;28;19962;-26
2023/05/17 05:02:23;;;;;;;;;;;9.90;84.50;;;;;;5072235;28;19912;-25
2023/05/17 05:04:48;;;;;;;;;;;10.00;84.40;;;;;;5072586;28;19912;-29
2023/05/17 05:07:14;;;;;;;;;;;10.10;84.20;;;;;;5072053;28;19962;-28
2023/05/17 05:09:40;;;;;;;;;;;10.10;84.00;;;;;;5072157;28;20268;-29
2023/05/17 05:12:05;;;;;;;;;;;10.10;84.00;;;;;;5072173;28;19912;-26
2023/05/17 05:14:31;;;;;;;;;;;10.10;84.00;;;;;;5072129;28;19912;-30
2023/05/17 05:16:56;;;;;;;;;;;10.10;84.00;;;;;;5072099;28;20268;-30
2023/05/17 05:19:22;;;;;;;;;;;10.10;84.10;;;;;;5072077;28;20396;-27
2023/05/17 05:21:47;;;;;;;;;;;10.10;84.00;;;;;;5072202;28;19972;-27
2023/05/17 05:24:13;;;;;;;;;;;10.10;84.10;;;;;;5071988;28;20261;-28
2023/05/17 05:26:38;;;;;;;;;;;10.10;84.00;;;;;;5072067;28;19913;-35
2023/05/17 05:29:04;;;;;;;;;;;10.20;84.00;;;;;;5070913;28;20007;-26
2023/05/17 05:31:29;;;;;;;;;;;10.30;83.90;;;;;;5072143;28;19916;-27
2023/05/17 05:33:55;;;;;;;;;;;10.40;83.80;;;;;;5072228;28;19912;-25
2023/05/17 05:36:20;;;;;;;;;;;10.50;83.80;;;;;;5070947;28;20008;-25
2023/05/17 05:38:46;;;;;;;;;;;10.70;83.60;;;;;;5072117;28;19916;-25
2023/05/17 05:41:12;;;;;;;;;;;10.80;83.40;;;;;;5072162;28;19947;-29
2023/05/17 05:43:37;;;;;;;;;;;10.90;83.20;;;;;;5072228;28;19956;-26
2023/05/17 05:46:03;;;;;;;;;;;11.00;83.00;;;;;;5072074;28;19918;-32
2023/05/17 05:48:28;;;;;;;;;;;11.00;82.70;;;;;;5072024;28;19920;-45
2023/05/17 05:50:54;;;;;;;;;;;11.10;82.50;;;;;;5072002;28;19912;-29
2023/05/17 05:53:19;;;;;;;;;;;11.00;82.50;;;;;;5072102;28;19912;-25
2023/05/17 05:55:45;;;;;;;;;;;11.00;82.50;;;;;;5072087;28;19912;-33
2023/05/17 05:58:10;;;;;;;;;;;11.00;82.50;;;;;;5072064;28;20007;-26
2023/05/17 06:00:36;;;;;;;;;;;10.90;82.50;;;;;;5071806;28;19916;-26
2023/05/17 06:03:02;;;;;;;;;;;10.90;82.50;;;;;;5072094;28;19917;-29
2023/05/17 06:05:27;;;;;;;;;;;10.90;82.50;;;;;;5071756;28;19912;-30
2023/05/17 06:07:53;;;;;;;;;;;10.90;82.50;;;;;;5073527;28;20001;-26
2023/05/17 06:10:18;;;;;;;;;;;11.00;82.50;;;;;;5076111;28;19912;-39
2023/05/17 06:12:43;;;;;;;;;;;11.00;82.40;;;;;;5075950;28;19962;-26
2023/05/17 06:15:09;;;;;;;;;;;11.10;82.20;;;;;;5075984;28;19913;-27
2023/05/17 06:17:35;;;;;;;;;;;11.10;81.90;;;;;;5076169;28;20331;-25
2023/05/17 06:20:00;;;;;;;;;;;11.20;81.60;;;;;;5076096;28;19912;-27
2023/05/17 06:22:26;;;;;;;;;;;11.20;81.70;;;;;;5075622;28;20380;-29
2023/05/17 06:24:51;;;;;;;;;;;11.20;81.60;;;;;;5075676;28;19936;-29
2023/05/17 06:27:16;;;;;;;;;;;11.20;81.50;;;;;;5075550;28;19912;-27
2023/05/17 06:29:42;;;;;;;;;;;11.20;81.50;;;;;;5075626;28;20338;-28
2023/05/17 06:32:07;;;;;;;;;;;11.20;81.50;;;;;;5075453;28;19913;-27
2023/05/17 06:34:33;;;;;;;;;;;11.10;81.40;;;;;;5075539;28;19912;-29
2023/05/17 06:36:58;;;;;;;;;;;11.10;81.50;;;;;;5075604;28;19919;-27
2023/05/17 06:39:24;;;;;;;;;;;11.10;81.30;;;;;;5075458;28;19985;-26
2023/05/17 06:41:50;;;;;;;;;;;11.00;81.40;;;;;;5075518;28;19913;-28
2023/05/17 06:44:15;;;;;;;;;;;11.00;81.40;;;;;;5075663;28;20117;-28
2023/05/17 06:46:41;;;;;;;;;;;11.00;81.30;;;;;;5075214;28;20556;-31
2023/05/17 06:49:06;;;;;;;;;;;11.00;81.40;;;;;;5073803;28;19969;-31
2023/05/17 06:51:32;;;;;;;;;;;11.10;81.40;;;;;;5075061;28;19913;-30
2023/05/17 06:53:57;;;;;;;;;;;11.10;81.30;;;;;;5075125;28;19916;-31
2023/05/17 06:56:23;;;;;;;;;;;11.10;81.00;;;;;;5073851;28;19936;-33
2023/05/17 06:58:49;;;;;;;;;;;11.20;80.90;;;;;;5075262;28;20379;-26
2023/05/17 07:01:15;;;;;;;;;;;11.20;80.60;;;;;;5075505;28;19918;-27
2023/05/17 07:03:41;;;;;;;;;;;11.30;80.60;;;;;;5075156;28;19922;-29
2023/05/17 07:06:06;;;;;;;;;;;11.40;79.60;;;;;;5074961;28;20343;-28
2023/05/17 07:08:32;;;;;;;;;;;11.50;79.80;;;;;;5075003;28;19912;-30
2023/05/17 07:10:57;;;;;;;;;;;11.60;79.30;;;;;;5074905;28;19912;-26
2023/05/17 07:13:23;;;;;;;;;;;11.70;78.40;;;;;;5074958;28;19916;-29
2023/05/17 07:15:48;;;;;;;;;;;11.80;78.10;;;;;;5074556;28;19912;-28
2023/05/17 07:18:15;;;;;;;;;;;11.70;77.80;;;;;;5074505;28;19918;-29
2023/05/17 07:20:40;;;;;;;;;;;11.80;77.50;;;;;;5073444;28;20392;-26
2023/05/17 07:23:06;;;;;;;;;;;11.90;77.80;;;;;;5074556;28;19921;-27
2023/05/17 07:25:32;;;;;;;;;;;11.80;78.00;;;;;;5074662;28;19920;-28
2023/05/17 07:27:57;;;;;;;;;;;11.90;78.10;;;;;;5074597;28;19966;-27
2023/05/17 07:30:22;;;;;;;;;;;11.90;77.90;;;;;;5074346;28;19916;-27
2023/05/17 07:32:48;;;;;;;;;;;11.90;77.10;;;;;;5074813;28;19912;-26
2023/05/17 07:35:13;;;;;;;;;;;12.00;77.60;;;;;;5074433;28;20015;-27
2023/05/17 07:37:39;;;;;;;;;;;12.00;77.10;;;;;;5074389;28;19912;-26
2023/05/17 07:40:05;;;;;;;;;;;12.00;76.80;;;;;;5074207;28;19947;-27
2023/05/17 07:42:31;;;;;;;;;;;12.10;77.00;;;;;;5074249;28;19912;-26
2023/05/17 07:44:57;;;;;;;;;;;12.20;73.80;;;;;;5074589;28;19912;-26
2023/05/17 07:47:22;;;;;;;;;;;12.20;74.80;;;;;;5074365;28;20329;-36
2023/05/17 07:49:48;;;;;;;;;;;12.30;74.00;;;;;;5074257;28;19920;-30
2023/05/17 07:52:13;;;;;;;;;;;12.30;73.50;;;;;;5074118;28;20148;-26
2023/05/17 07:54:38;;;;;;;;;;;12.30;73.10;;;;;;5074208;28;19912;-26
2023/05/17 07:57:04;;;;;;;;;;;12.40;73.50;;;;;;5074053;28;20073;-26
2023/05/17 07:59:29;;;;;;;;;;;12.40;73.10;;;;;;5072645;28;19912;-30
2023/05/17 08:01:55;;;;;;;;;;;12.40;72.60;;;;;;5073879;28;19912;-30
2023/05/17 08:04:22;;;;;;;;;;;12.40;73.00;;;;;;5072461;28;19920;-29
2023/05/17 08:06:48;;;;;;;;;;;12.50;71.80;;;;;;5071825;28;20411;-37
2023/05/17 08:09:15;;;;;;;;;;;12.50;70.70;;;;;;5073635;28;19948;-32
2023/05/17 08:11:44;;;;;;;;;;;12.50;70.70;;;;;;5073744;28;19923;-33
2023/05/17 08:14:11;;;;;;;;;;;12.50;70.00;;;;;;5073690;28;19962;-28
2023/05/17 08:16:36;;;;;;;;;;;12.50;69.60;;;;;;5073633;28;20003;-27
2023/05/17 08:19:02;;;;;;;;;;;12.50;69.30;;;;;;5073635;28;19963;-26
2023/05/17 08:21:27;;;;;;;;;;;12.50;70.40;;;;;;5073369;28;19913;-26
2023/05/17 08:23:53;;;;;;;;;;;12.60;70.60;;;;;;5073349;28;19917;-29
2023/05/17 08:26:18;;;;;;;;;;;12.60;68.90;;;;;;5073363;28;19974;-29
2023/05/17 08:28:44;;;;;;;;;;;12.60;68.30;;;;;;5073384;28;19951;-27
2023/05/17 08:31:11;;;;;;;;;;;12.60;68.10;;;;;;5072689;28;19920;-26
2023/05/17 08:33:36;;;;;;;;;;;12.60;66.80;;;;;;5073350;28;19920;-26
2023/05/17 08:36:06;;;;;;;;;;;12.60;68.50;;;;;;5072107;28;20429;-28
2023/05/17 08:38:33;;;;;;;;;;;12.60;66.80;;;;;;5073383;28;19919;-28
2023/05/17 08:40:58;;;;;;;;;;;12.70;67.70;;;;;;5073313;28;19912;-27
2023/05/17 08:43:25;;;;;;;;;;;12.70;67.50;;;;;;5072938;28;20297;-30
2023/05/17 08:45:51;;;;;;;;;;;12.80;64.70;;;;;;5073072;28;19912;-27
2023/05/17 08:48:19;;;;;;;;;;;12.70;65.50;;;;;;5071726;28;19916;-27
2023/05/17 08:50:45;;;;;;;;;;;12.60;64.50;;;;;;5072950;28;19918;-27
2023/05/17 08:53:12;;;;;;;;;;;12.60;64.70;;;;;;5072967;28;19916;-26
2023/05/17 08:55:38;;;;;;;;;;;12.60;65.10;;;;;;5072851;28;19912;-29
2023/05/17 08:58:04;;;;;;;;;;;12.80;65.00;;;;;;5072902;28;19912;-27
2023/05/17 09:00:32;;;;;;;;;;;12.90;65.80;;;;;;5072624;28;19986;-25
2023/05/17 09:02:58;;;;;;;;;;;13.00;63.70;;;;;;5072522;28;19920;-25
2023/05/17 09:05:24;;;;;;;;;;;13.00;61.90;;;;;;5072568;28;19912;-28
2023/05/17 09:07:49;;;;;;;;;;;13.00;61.40;;;;;;5072563;28;19934;-26
2023/05/17 09:10:15;;;;;;;;;;;13.00;60.90;;;;;;5072456;28;19912;-26
2023/05/17 09:12:41;;;;;;;;;;;12.90;62.10;;;;;;5072683;28;19912;-27
2023/05/17 09:15:19;;;;;;;;;;;13.00;62.80;;;;;;5072484;28;20410;-35
2023/05/17 09:17:51;;;;;;;;;;;13.20;62.80;;;;;;5072510;28;20042;-29
2023/05/17 09:20:24;;;;;;;;;;;13.30;62.90;;;;;;5072171;28;20000;-29
2023/05/17 09:22:53;;;;;;;;;;;13.30;62.60;;;;;;5070693;28;19916;-27
2023/05/17 09:25:19;;;;;;;;;;;13.30;60.00;;;;;;5071029;28;19938;-39
2023/05/17 09:27:45;;;;;;;;;;;13.20;59.80;;;;;;5072346;28;19958;-28
2023/05/17 09:30:11;;;;;;;;;;;13.00;60.80;;;;;;5072186;28;19920;-26
2023/05/17 09:32:42;;;;;;;;;;;13.00;61.50;;;;;;5072237;28;19923;-25
2023/05/17 09:35:08;;;;;;;;;;;13.00;61.50;;;;;;5071101;28;20284;-27
2023/05/17 09:37:36;;;;;;;;;;;13.10;61.00;;;;;;5072145;28;19912;-26
2023/05/17 09:40:01;;;;;;;;;;;13.20;60.30;;;;;;5072515;28;19913;-27
2023/05/17 09:42:27;;;;;;;;;;;13.30;59.00;;;;;;5071118;28;19919;-28
2023/05/17 09:44:56;;;;;;;;;;;13.40;60.20;;;;;;5072262;28;19948;-28
2023/05/17 09:47:22;;;;;;;;;;;13.50;58.60;;;;;;5072165;28;19919;-30
2023/05/17 09:49:48;;;;;;;;;;;13.60;59.10;;;;;;5072044;28;19962;-28
2023/05/17 09:52:16;;;;;;;;;;;13.70;60.30;;;;;;5072142;28;19913;-27
2023/05/17 09:54:41;;;;;;;;;;;13.70;57.50;;;;;;5072079;28;20377;-27
2023/05/17 09:57:09;;;;;;;;;;;13.70;57.40;;;;;;5072021;28;19915;-28
2023/05/17 09:59:35;;;;;;;;;;;13.60;59.10;;;;;;5072069;28;19909;-27
2023/05/17 10:02:03;;;;;;;;;;;13.70;59.00;;;;;;5072023;28;19922;-26
2023/05/17 10:04:29;;;;;;;;;;;13.80;57.80;;;;;;5070542;28;19912;-26
2023/05/17 10:06:55;;;;;;;;;;;13.90;56.30;;;;;;5071943;28;20403;-26
2023/05/17 10:09:21;;;;;;;;;;;13.90;56.50;;;;;;5071965;28;19916;-26
2023/05/17 10:11:47;;;;;;;;;;;14.00;57.90;;;;;;5071892;28;19918;-29
2023/05/17 10:14:12;;;;;;;;;;;14.00;57.80;;;;;;5071889;28;19909;-27
2023/05/17 10:16:38;;;;;;;;;;;14.10;57.30;;;;;;5072052;28;19934;-27
2023/05/17 10:19:04;;;;;;;;;;;14.20;57.40;;;;;;5072021;28;19909;-31
2023/05/17 10:21:30;;;;;;;;;;;14.20;55.60;;;;;;5070493;28;19924;-27
2023/05/17 10:23:57;;;;;;;;;;;14.20;56.00;;;;;;5071820;28;20193;-26
2023/05/17 10:26:23;;;;;;;;;;;14.30;54.70;;;;;;5071768;28;19948;-26
2023/05/17 10:28:50;;;;;;;;;;;14.30;55.80;;;;;;5071729;28;19950;-27
2023/05/17 10:31:16;;;;;;;;;;;14.40;56.40;;;;;;5071660;28;19920;-30
2023/05/17 10:33:43;;;;;;;;;;;14.40;56.40;;;;;;5072030;28;19913;-27
2023/05/17 10:36:09;;;;;;;;;;;14.40;56.30;;;;;;5071721;28;19974;-27
2023/05/17 10:38:35;;;;;;;;;;;14.30;54.60;;;;;;5071690;28;20434;-30
2023/05/17 10:41:01;;;;;;;;;;;14.20;54.80;;;;;;5070186;28;19915;-26
2023/05/17 10:43:28;;;;;;;;;;;14.10;55.40;;;;;;5071505;28;19924;-27
2023/05/17 10:45:53;;;;;;;;;;;14.20;55.80;;;;;;5071576;28;19998;-29
2023/05/17 10:48:18;;;;;;;;;;;14.30;55.80;;;;;;5070283;28;19955;-27
2023/05/17 10:50:45;;;;;;;;;;;14.40;56.00;;;;;;5071518;28;19955;-34
2023/05/17 10:53:11;;;;;;;;;;;14.60;56.00;;;;;;5071689;28;19916;-32
2023/05/17 10:55:38;;;;;;;;;;;14.70;54.10;;;;;;5075192;28;19912;-28
2023/05/17 10:58:24;;;;;;;;;;;14.80;55.40;;;;;;5075167;28;19908;-28
2023/05/17 11:00:52;;;;;;;;;;;14.90;55.00;;;;;;5075100;28;19909;-27
2023/05/17 11:03:24;;;;;;;;;;;15.00;55.00;;;;;;5074817;28;19919;-31
2023/05/17 11:06:08;;;;;;;;;;;15.20;54.80;;;;;;5074993;28;20368;-26
2023/05/17 11:08:34;;;;;;;;;;;15.30;55.50;;;;;;5074894;28;20007;-30
2023/05/17 11:11:11;;;;;;;;;;;15.40;55.20;;;;;;5074877;28;20001;-26
2023/05/17 11:13:51;;;;;;;;;;;15.40;51.90;;;;;;5074849;28;19956;-27
2023/05/17 11:16:19;;;;;;;;;;;15.30;53.10;;;;;;5073572;28;20580;-27
2023/05/17 11:18:54;;;;;;;;;;;15.30;53.60;;;;;;5073412;28;19908;-29
2023/05/17 11:21:21;;;;;;;;;;;15.30;51.90;;;;;;5073441;28;19958;-27
2023/05/17 11:23:47;;;;;;;;;;;15.30;52.90;;;;;;5074571;28;20380;-29
2023/05/17 11:26:18;;;;;;;;;;;15.30;50.70;;;;;;5075026;28;19936;-30
2023/05/17 11:28:43;;;;;;;;;;;15.30;52.90;;;;;;5073453;28;19931;-31
2023/05/17 11:31:09;;;;;;;;;;;15.50;53.20;;;;;;5074358;28;19916;-27
2023/05/17 11:33:42;;;;;;;;;;;15.50;52.70;;;;;;5074610;28;20315;-29
2023/05/17 11:36:18;;;;;;;;;;;15.50;49.90;;;;;;5074585;28;19909;-27
2023/05/17 11:38:43;;;;;;;;;;;15.50;51.60;;;;;;5074509;28;19994;-27
2023/05/17 11:41:21;;;;;;;;;;;15.50;50.60;;;;;;5073071;28;20443;-27
2023/05/17 11:43:48;;;;;;;;;;;15.60;49.20;;;;;;5074259;28;19916;-28
2023/05/17 11:46:18;;;;;;;;;;;15.60;48.30;;;;;;5074407;28;19908;-29
2023/05/17 11:48:44;;;;;;;;;;;15.60;49.10;;;;;;5074241;28;19908;-29
2023/05/17 11:51:12;;;;;;;;;;;15.50;48.40;;;;;;5074312;28;20416;-26
2023/05/17 11:53:38;;;;;;;;;;;15.50;48.50;;;;;;5074170;28;19908;-28
2023/05/17 11:56:04;;;;;;;;;;;15.50;49.40;;;;;;5074280;28;19958;-27
2023/05/17 11:58:30;;;;;;;;;;;15.60;47.90;;;;;;5073983;28;20318;-27
2023/05/17 12:00:57;;;;;;;;;;;15.70;48.60;;;;;;5074025;28;19916;-32
2023/05/17 12:03:24;;;;;;;;;;;15.90;49.60;;;;;;5073932;28;20296;-29
2023/05/17 12:06:05;;;;;;;;;;;16.10;49.80;;;;;;5073168;28;20349;-27
2023/05/17 12:08:31;;;;;;;;;;;16.20;49.80;;;;;;5073856;28;19915;-31
2023/05/17 12:10:57;;;;;;;;;;;16.20;49.00;;;;;;5073808;28;20378;-30
2023/05/17 12:13:23;;;;;;;;;;;16.20;49.70;;;;;;5072499;28;19916;-29
2023/05/17 12:15:59;;;;;;;;;;;16.40;49.40;;;;;;5073826;28;19908;-34
2023/05/17 12:18:37;;;;;;;;;;;16.50;49.10;;;;;;5073990;28;19912;-28
2023/05/17 12:21:03;;;;;;;;;;;16.50;48.80;;;;;;5073781;28;19908;-34
2023/05/17 12:23:30;;;;;;;;;;;16.50;49.20;;;;;;5073463;28;20065;-28
2023/05/17 12:26:09;;;;;;;;;;;16.50;49.30;;;;;;5073585;28;19909;-28
2023/05/17 12:28:35;;;;;;;;;;;16.40;49.70;;;;;;5073517;28;19950;-28
2023/05/17 12:31:02;;;;;;;;;;;16.40;49.80;;;;;;5073364;28;19916;-28
2023/05/17 12:33:29;;;;;;;;;;;16.50;50.20;;;;;;5073332;28;19909;-32
2023/05/17 12:35:55;;;;;;;;;;;16.50;48.60;;;;;;5073525;28;20332;-30
2023/05/17 12:38:20;;;;;;;;;;;16.40;49.20;;;;;;5073104;28;19908;-29
2023/05/17 12:40:46;;;;;;;;;;;16.40;49.40;;;;;;5073236;28;19973;-26
2023/05/17 12:43:12;;;;;;;;;;;16.50;50.00;;;;;;5073079;28;19974;-26
2023/05/17 12:45:40;;;;;;;;;;;16.60;50.30;;;;;;5073109;28;20319;-33
2023/05/17 12:48:05;;;;;;;;;;;16.80;50.40;;;;;;5073166;28;19959;-29
2023/05/17 12:50:31;;;;;;;;;;;16.90;48.00;;;;;;5073095;28;20394;-27
2023/05/17 12:52:56;;;;;;;;;;;16.90;48.60;;;;;;5072941;28;19931;-27
2023/05/17 12:55:22;;;;;;;;;;;17.00;49.20;;;;;;5073285;28;19915;-27
2023/05/17 12:57:51;;;;;;;;;;;17.00;49.00;;;;;;5071566;28;19908;-32
2023/05/17 13:00:17;;;;;;;;;;;17.10;48.20;;;;;;5072887;28;19956;-28
2023/05/17 13:02:43;;;;;;;;;;;17.20;47.20;;;;;;5072755;28;19912;-30
2023/05/17 13:05:12;;;;;;;;;;;17.10;47.90;;;;;;5072798;28;19909;-29
2023/05/17 13:07:38;;;;;;;;;;;17.20;48.00;;;;;;5072699;28;19916;-28
2023/05/17 13:10:03;;;;;;;;;;;17.20;48.20;;;;;;5073004;28;19996;-36
2023/05/17 13:12:29;;;;;;;;;;;17.20;47.50;;;;;;5072663;28;19965;-29
2023/05/17 13:14:54;;;;;;;;;;;17.30;46.70;;;;;;5072592;28;20336;-31
2023/05/17 13:17:33;;;;;;;;;;;17.30;46.70;;;;;;5072316;28;19909;-28
2023/05/17 13:19:58;;;;;;;;;;;17.30;47.40;;;;;;5072414;28;19935;-28
2023/05/17 13:22:24;;;;;;;;;;;17.40;45.90;;;;;;5072425;28;20319;-28
2023/05/17 13:24:50;;;;;;;;;;;17.40;47.00;;;;;;5072418;28;19966;-28
2023/05/17 13:27:16;;;;;;;;;;;17.50;47.10;;;;;;5070981;28;19970;-27
2023/05/17 13:29:42;;;;;;;;;;;17.50;46.20;;;;;;5072293;28;19915;-28
2023/05/17 13:32:08;;;;;;;;;;;17.60;47.40;;;;;;5072169;28;19916;-29
2023/05/17 13:34:34;;;;;;;;;;;17.70;47.60;;;;;;5072706;28;20262;-30
2023/05/17 13:36:59;;;;;;;;;;;17.90;47.40;;;;;;5070937;28;19920;-28
2023/05/17 13:39:25;;;;;;;;;;;18.10;46.90;;;;;;5070972;28;19924;-29
2023/05/17 13:41:50;;;;;;;;;;;18.10;46.90;;;;;;5071983;28;20015;-27
2023/05/17 13:44:16;;;;;;;;;;;18.20;46.70;;;;;;5071979;28;19920;-28
2023/05/17 13:46:41;;;;;;;;;;;18.20;46.20;;;;;;5072213;28;19913;-33
2023/05/17 13:49:08;;;;;;;;;;;18.30;45.50;;;;;;5071971;28;19912;-28
2023/05/17 13:51:33;;;;;;;;;;;18.30;46.60;;;;;;5072214;28;19913;-27
2023/05/17 13:53:59;;;;;;;;;;;18.50;47.00;;;;;;5070768;28;20028;-28
2023/05/17 13:56:25;;;;;;;;;;;18.50;46.70;;;;;;5070879;28;19916;-26
2023/05/17 13:58:50;;;;;;;;;;;18.60;45.90;;;;;;5071970;28;19913;-26
2023/05/17 14:01:17;;;;;;;;;;;18.60;45.70;;;;;;5072053;28;19913;-27
2023/05/17 14:03:43;;;;;;;;;;;18.50;45.10;;;;;;5071998;28;19916;-27
2023/05/17 14:06:09;;;;;;;;;;;18.50;45.60;;;;;;5071841;28;19955;-28
2023/05/17 14:08:34;;;;;;;;;;;18.60;45.50;;;;;;5072041;28;19920;-28
2023/05/17 14:11:00;;;;;;;;;;;18.70;46.10;;;;;;5071690;28;19913;-28
2023/05/17 14:13:26;;;;;;;;;;;18.80;45.50;;;;;;5070567;28;19966;-27
2023/05/17 14:15:51;;;;;;;;;;;18.90;45.40;;;;;;5071800;28;20376;-30
2023/05/17 14:18:17;;;;;;;;;;;18.90;45.60;;;;;;5071843;28;19920;-27